Time;durP1;ratioP1;P1;durP2;ratioP2;P2;SDS_P1;SDS_P2;PMS_P1;PMS_P2;Temp;Humidity;BMP_temperature;BMP_pressure;BME280_temperature;BME280_humidity;BME280_pressure;Samples;Min_cycle;Max_cycle;Signal;HPM_P1;HPM_P2
2024/03/31 00:01:33;;;;;;;41.50;24.40;;;5.90;99.90;;;;;;4970474;28;20038;-64
2024/03/31 00:03:59;;;;;;;43.28;24.70;;;6.00;99.90;;;;;;4982359;28;20056;-64
2024/03/31 00:06:24;;;;;;;43.60;24.58;;;6.10;99.90;;;;;;4979300;28;20398;-65
2024/03/31 00:08:50;;;;;;;45.35;23.90;;;6.10;99.90;;;;;;4976041;28;20609;-65
2024/03/31 00:11:16;;;;;;;44.33;24.25;;;6.20;99.90;;;;;;4979953;28;20026;-64
2024/03/31 00:13:41;;;;;;;43.45;25.00;;;6.20;99.90;;;;;;4978926;28;20129;-66
2024/03/31 00:16:07;;;;;;;41.38;23.13;;;6.10;99.90;;;;;;4980099;28;20389;-64
2024/03/31 00:18:32;;;;;;;40.33;24.35;;;6.00;99.90;;;;;;4979317;28;20133;-64
2024/03/31 00:21:01;;;;;;;41.17;24.30;;;6.00;99.90;;;;;;4977377;28;20030;-64
2024/03/31 00:23:27;;;;;;;39.85;23.13;;;5.90;99.90;;;;;;4977472;28;20026;-65
2024/03/31 00:25:59;;;;;;;44.67;24.75;;;5.90;99.90;;;;;;4977835;28;20060;-65
2024/03/31 00:28:25;;;;;;;47.30;25.80;;;5.90;99.90;;;;;;4981613;28;20095;-64
2024/03/31 00:30:55;;;;;;;45.38;25.85;;;5.90;99.90;;;;;;4978820;28;20030;-65
2024/03/31 00:33:21;;;;;;;44.20;25.63;;;5.90;99.90;;;;;;4972351;28;20038;-64
2024/03/31 00:35:56;;;;;;;46.35;25.52;;;5.90;99.90;;;;;;4992082;28;20024;-64
2024/03/31 00:38:23;;;;;;;45.78;25.15;;;6.00;99.90;;;;;;4977662;28;20565;-65
2024/03/31 00:40:49;;;;;;;42.45;24.45;;;5.90;99.90;;;;;;4976067;28;20531;-64
2024/03/31 00:43:15;;;;;;;43.28;25.38;;;5.90;99.90;;;;;;4979979;28;20054;-64
2024/03/31 00:45:41;;;;;;;43.17;24.98;;;6.00;99.90;;;;;;4978149;28;20084;-65
2024/03/31 00:48:07;;;;;;;46.58;25.60;;;5.90;99.90;;;;;;4981052;28;20339;-64
2024/03/31 00:50:34;;;;;;;52.22;27.38;;;6.00;99.90;;;;;;4971198;28;20853;-64
2024/03/31 00:53:00;;;;;;;51.33;28.38;;;6.00;99.90;;;;;;4980957;28;20168;-64
2024/03/31 00:55:26;;;;;;;47.97;26.48;;;6.10;99.90;;;;;;4979041;28;20478;-64
2024/03/31 00:57:54;;;;;;;53.83;28.75;;;6.10;99.90;;;;;;4971015;28;20656;-64
2024/03/31 01:00:20;;;;;;;54.30;29.38;;;6.20;99.90;;;;;;4976459;28;20512;-65
2024/03/31 01:02:46;;;;;;;55.17;29.50;;;6.20;99.90;;;;;;4978601;28;20030;-65
2024/03/31 01:05:12;;;;;;;58.13;30.77;;;6.10;99.90;;;;;;4975828;28;20019;-65
2024/03/31 01:07:37;;;;;;;51.47;29.73;;;6.10;99.90;;;;;;4972500;28;20390;-65
2024/03/31 01:10:04;;;;;;;57.40;32.95;;;6.10;99.90;;;;;;4977324;28;20022;-65
2024/03/31 01:12:33;;;;;;;50.92;30.33;;;6.10;99.90;;;;;;4972346;28;20019;-65
2024/03/31 01:14:59;;;;;;;58.25;30.98;;;6.10;99.90;;;;;;4976095;28;20493;-65
2024/03/31 01:17:25;;;;;;;50.08;29.50;;;6.10;99.90;;;;;;4969164;28;20051;-65
2024/03/31 01:19:51;;;;;;;51.35;27.98;;;6.00;99.90;;;;;;4971909;28;20049;-64
2024/03/31 01:22:17;;;;;;;44.97;26.23;;;6.10;99.90;;;;;;4976932;28;20102;-65
2024/03/31 01:24:43;;;;;;;42.42;23.67;;;6.00;99.90;;;;;;4975032;28;20473;-65
2024/03/31 01:27:09;;;;;;;43.65;25.45;;;6.00;99.90;;;;;;4969115;28;20030;-64
2024/03/31 01:29:37;;;;;;;48.75;27.85;;;6.00;99.90;;;;;;4969797;28;20031;-65
2024/03/31 01:32:03;;;;;;;49.65;27.58;;;6.00;99.90;;;;;;4978670;28;20033;-65
2024/03/31 01:34:28;;;;;;;52.30;30.05;;;5.90;99.90;;;;;;4979182;28;20027;-64
2024/03/31 01:36:54;;;;;;;54.92;31.02;;;5.90;99.90;;;;;;4977605;28;20838;-64
2024/03/31 01:39:24;;;;;;;58.33;30.90;;;5.80;99.90;;;;;;4977237;28;20039;-64
2024/03/31 01:41:50;;;;;;;56.30;30.38;;;5.80;99.90;;;;;;4976164;28;20030;-64
2024/03/31 01:44:17;;;;;;;52.00;30.15;;;5.70;99.90;;;;;;4978309;28;20109;-65
2024/03/31 01:46:43;;;;;;;54.47;30.77;;;5.60;99.90;;;;;;4972513;28;20389;-65
2024/03/31 01:49:09;;;;;;;58.78;31.55;;;5.60;99.90;;;;;;4971802;28;20106;-65
2024/03/31 01:51:34;;;;;;;54.03;31.02;;;5.60;99.90;;;;;;4971492;28;20041;-64
2024/03/31 01:54:00;;;;;;;53.47;31.45;;;5.80;99.90;;;;;;4971461;28;20782;-65
2024/03/31 01:56:25;;;;;;;55.28;31.42;;;5.80;99.90;;;;;;4988096;28;20023;-64
2024/03/31 01:58:51;;;;;;;60.20;31.77;;;5.90;99.90;;;;;;4976007;28;20110;-64
2024/03/31 02:01:17;;;;;;;53.92;31.65;;;6.00;99.90;;;;;;4971330;28;20031;-64
2024/03/31 02:03:42;;;;;;;54.13;31.48;;;6.00;99.90;;;;;;4976732;28;20101;-64
2024/03/31 02:06:09;;;;;;;56.72;31.95;;;6.00;99.90;;;;;;4978113;28;20038;-65
2024/03/31 02:08:39;;;;;;;56.10;31.98;;;6.00;99.90;;;;;;4982892;28;20023;-64
2024/03/31 02:11:05;;;;;;;52.45;29.70;;;6.00;99.90;;;;;;4983907;28;20386;-65
2024/03/31 02:13:33;;;;;;;55.95;32.80;;;6.00;99.90;;;;;;4971405;28;20057;-64
2024/03/31 02:15:59;;;;;;;55.40;33.70;;;5.90;99.90;;;;;;4978319;28;20109;-65
2024/03/31 02:18:24;;;;;;;59.17;33.80;;;6.10;99.90;;;;;;4976155;28;20125;-65
2024/03/31 02:20:50;;;;;;;56.95;33.42;;;6.20;99.90;;;;;;4974282;28;20039;-65
2024/03/31 02:23:15;;;;;;;54.50;32.28;;;6.40;99.90;;;;;;4977177;28;20049;-65
2024/03/31 02:25:41;;;;;;;58.55;33.85;;;6.50;99.90;;;;;;4975758;28;20114;-65
2024/03/31 02:28:06;;;;;;;54.30;32.65;;;6.60;99.90;;;;;;4978624;28;20474;-64
2024/03/31 02:30:32;;;;;;;55.90;33.40;;;6.70;99.90;;;;;;4975573;28;20035;-64
2024/03/31 02:32:58;;;;;;;53.58;31.73;;;6.70;99.90;;;;;;4978049;28;20463;-64
2024/03/31 02:35:23;;;;;;;61.58;35.00;;;6.70;99.90;;;;;;4977710;28;20031;-64
2024/03/31 02:37:49;;;;;;;60.22;35.08;;;6.90;99.90;;;;;;4982998;28;20058;-64
2024/03/31 02:40:15;;;;;;;55.10;33.13;;;6.90;99.90;;;;;;4976679;28;20033;-64
2024/03/31 02:42:42;;;;;;;59.97;34.10;;;6.90;99.90;;;;;;4975905;28;20107;-65
2024/03/31 02:45:07;;;;;;;58.78;32.70;;;6.90;99.90;;;;;;4975965;28;20411;-64
2024/03/31 02:47:33;;;;;;;59.80;35.15;;;6.90;99.90;;;;;;4974600;28;20113;-65
2024/03/31 02:50:01;;;;;;;56.28;33.05;;;6.90;99.90;;;;;;4973586;28;20026;-65
2024/03/31 02:52:27;;;;;;;55.95;32.72;;;6.80;99.90;;;;;;4969473;28;20038;-65
2024/03/31 02:54:52;;;;;;;52.92;32.80;;;6.80;99.90;;;;;;4964245;28;20035;-64
2024/03/31 02:57:18;;;;;;;53.90;32.92;;;6.80;99.90;;;;;;4969783;28;20079;-65
2024/03/31 02:59:46;;;;;;;55.53;32.28;;;6.80;99.90;;;;;;4969547;28;20394;-65
2024/03/31 03:02:13;;;;;;;52.00;32.30;;;6.80;99.90;;;;;;4993925;28;20059;-65
2024/03/31 03:04:38;;;;;;;52.28;32.17;;;6.80;99.90;;;;;;4965923;28;20027;-65
2024/03/31 03:07:04;;;;;;;52.92;31.33;;;6.80;99.90;;;;;;4971146;28;20103;-65
2024/03/31 03:09:30;;;;;;;57.83;32.80;;;6.80;99.90;;;;;;4975355;28;20031;-65
2024/03/31 03:11:55;;;;;;;54.25;31.45;;;6.80;99.90;;;;;;4978210;28;20504;-65
2024/03/31 03:14:21;;;;;;;52.47;32.20;;;6.80;99.90;;;;;;4975759;28;20058;-65
2024/03/31 03:16:49;;;;;;;53.00;31.13;;;6.80;99.90;;;;;;4975996;28;20105;-65
2024/03/31 03:19:15;;;;;;;49.83;29.98;;;6.90;99.90;;;;;;4975869;28;20077;-65
2024/03/31 03:21:42;;;;;;;49.17;30.23;;;6.90;99.90;;;;;;4974895;28;20066;-65
2024/03/31 03:24:08;;;;;;;48.78;28.42;;;6.90;99.90;;;;;;4980726;28;20022;-65
2024/03/31 03:26:34;;;;;;;48.03;28.65;;;6.90;99.90;;;;;;4986004;28;20035;-65
2024/03/31 03:28:59;;;;;;;48.22;29.77;;;6.80;99.90;;;;;;4981123;28;20121;-65
2024/03/31 03:31:25;;;;;;;49.88;29.13;;;6.80;99.90;;;;;;4974272;28;20420;-65
2024/03/31 03:33:53;;;;;;;44.72;27.42;;;6.80;99.90;;;;;;4979309;28;20103;-65
2024/03/31 03:36:19;;;;;;;50.00;27.73;;;6.90;99.90;;;;;;4986280;28;20114;-65
2024/03/31 03:38:48;;;;;;;52.30;28.15;;;6.90;99.90;;;;;;4986562;28;20117;-65
2024/03/31 03:41:13;;;;;;;44.08;26.52;;;6.90;99.90;;;;;;4979690;28;20049;-65
2024/03/31 03:43:39;;;;;;;47.63;26.50;;;7.00;99.90;;;;;;4979508;28;20434;-65
2024/03/31 03:46:05;;;;;;;47.83;27.17;;;7.00;99.90;;;;;;4979661;28;20026;-65
2024/03/31 03:48:30;;;;;;;54.72;27.83;;;7.10;99.90;;;;;;4977582;28;20096;-65
2024/03/31 03:51:00;;;;;;;50.00;27.50;;;7.10;99.90;;;;;;4978490;28;20354;-65
2024/03/31 03:53:25;;;;;;;47.45;26.80;;;7.20;99.90;;;;;;4974210;28;20420;-65
2024/03/31 03:55:51;;;;;;;44.50;26.10;;;7.20;99.90;;;;;;4980706;28;20026;-65
2024/03/31 03:58:16;;;;;;;41.25;25.33;;;7.20;99.90;;;;;;4995851;28;20104;-65
2024/03/31 04:00:43;;;;;;;44.50;24.15;;;7.30;99.90;;;;;;4976877;28;20023;-64
2024/03/31 04:03:11;;;;;;;45.72;23.98;;;7.30;99.90;;;;;;4976997;28;20041;-64
2024/03/31 04:05:37;;;;;;;42.78;23.60;;;7.30;99.90;;;;;;4979127;28;20034;-65
2024/03/31 04:08:02;;;;;;;40.95;23.40;;;7.40;99.90;;;;;;4977853;28;20034;-65
2024/03/31 04:10:29;;;;;;;40.08;22.05;;;7.50;99.90;;;;;;4977537;28;20409;-65
2024/03/31 04:12:54;;;;;;;40.65;22.15;;;7.50;99.90;;;;;;4979815;28;20039;-65
2024/03/31 04:15:20;;;;;;;41.15;22.90;;;7.60;99.90;;;;;;4976780;28;20034;-64
2024/03/31 04:17:46;;;;;;;41.58;22.85;;;7.60;99.90;;;;;;4975759;28;20058;-65
2024/03/31 04:20:11;;;;;;;43.25;23.85;;;7.60;99.90;;;;;;4973514;28;20023;-64
2024/03/31 04:22:37;;;;;;;44.72;25.05;;;7.60;99.90;;;;;;4978672;28;20083;-65
2024/03/31 04:25:03;;;;;;;42.92;23.58;;;7.50;99.90;;;;;;4978151;28;20413;-64
2024/03/31 04:27:29;;;;;;;44.55;25.73;;;7.50;99.90;;;;;;4979881;28;20022;-64
2024/03/31 04:29:54;;;;;;;41.63;24.13;;;7.50;99.90;;;;;;4987717;28;20030;-64
2024/03/31 04:32:20;;;;;;;43.53;23.63;;;7.50;99.90;;;;;;4976641;28;20038;-65
2024/03/31 04:34:45;;;;;;;43.05;24.55;;;7.40;99.90;;;;;;4979066;28;20493;-65
2024/03/31 04:37:13;;;;;;;43.03;23.55;;;7.40;99.90;;;;;;4980133;28;20019;-65
2024/03/31 04:39:39;;;;;;;46.33;25.05;;;7.40;99.90;;;;;;4979152;28;20504;-66
2024/03/31 04:42:04;;;;;;;47.72;26.50;;;7.40;99.90;;;;;;4977966;28;20073;-65
2024/03/31 04:44:30;;;;;;;43.55;24.77;;;7.40;99.90;;;;;;4978121;28;20385;-65
2024/03/31 04:46:56;;;;;;;43.17;24.35;;;7.40;99.90;;;;;;4978095;28;20034;-65
2024/03/31 04:49:22;;;;;;;48.38;25.63;;;7.30;99.90;;;;;;4975778;28;20488;-65
2024/03/31 04:51:48;;;;;;;43.55;24.15;;;7.40;99.90;;;;;;4966887;28;20038;-65
2024/03/31 04:54:15;;;;;;;46.03;25.58;;;7.40;99.90;;;;;;4973334;28;20034;-65
2024/03/31 04:56:41;;;;;;;41.67;24.98;;;7.40;99.90;;;;;;4976836;28;20023;-65
2024/03/31 04:59:07;;;;;;;46.42;24.88;;;7.40;99.90;;;;;;4976792;28;20416;-65
2024/03/31 05:01:36;;;;;;;43.25;25.80;;;7.40;99.90;;;;;;4972340;28;20019;-65
2024/03/31 05:04:01;;;;;;;48.60;24.73;;;7.40;99.90;;;;;;4976670;28;20097;-65
2024/03/31 05:06:29;;;;;;;45.25;24.75;;;7.40;99.90;;;;;;4978043;28;20183;-65
2024/03/31 05:08:55;;;;;;;43.17;23.02;;;7.30;99.90;;;;;;4983119;28;20517;-65
2024/03/31 05:11:20;;;;;;;44.22;24.70;;;7.40;99.90;;;;;;4980003;28;20138;-65
2024/03/31 05:13:46;;;;;;;41.22;21.65;;;7.30;99.90;;;;;;4970822;28;20512;-65
2024/03/31 05:16:14;;;;;;;40.90;21.33;;;7.40;99.90;;;;;;4983968;28;20023;-65
2024/03/31 05:18:39;;;;;;;41.25;21.27;;;7.60;99.90;;;;;;4978817;28;20054;-65
2024/03/31 05:21:08;;;;;;;40.58;21.67;;;7.60;99.90;;;;;;4973129;28;20031;-65
2024/03/31 05:23:36;;;;;;;46.13;23.13;;;7.70;99.90;;;;;;4977210;28;20045;-65
2024/03/31 05:26:02;;;;;;;40.03;22.00;;;7.70;99.90;;;;;;4976807;28;20026;-65
2024/03/31 05:28:28;;;;;;;39.70;21.30;;;7.60;99.90;;;;;;4977949;28;20026;-65
2024/03/31 05:30:54;;;;;;;34.60;21.02;;;7.60;99.90;;;;;;4976034;28;20031;-65
2024/03/31 05:33:20;;;;;;;32.95;19.02;;;7.70;99.90;;;;;;4972312;28;20413;-65
2024/03/31 05:35:46;;;;;;;36.00;18.92;;;7.70;99.90;;;;;;4988590;28;20415;-65
2024/03/31 05:38:14;;;;;;;33.60;18.50;;;7.70;99.90;;;;;;4979700;28;20026;-65
2024/03/31 05:40:40;;;;;;;35.45;19.45;;;7.80;99.90;;;;;;4974456;28;20035;-65
2024/03/31 05:43:06;;;;;;;33.60;16.77;;;7.80;99.90;;;;;;4977013;28;20080;-65
2024/03/31 05:45:37;;;;;;;36.40;17.50;;;7.90;99.90;;;;;;4976153;28;20027;-65
2024/03/31 05:48:06;;;;;;;39.60;17.73;;;7.90;99.90;;;;;;4977407;28;20027;-65
2024/03/31 05:50:32;;;;;;;36.95;17.30;;;7.90;99.90;;;;;;4971756;28;20039;-66
2024/03/31 05:52:57;;;;;;;35.45;18.40;;;7.90;99.90;;;;;;4983029;28;20035;-65
2024/03/31 05:55:23;;;;;;;35.30;18.10;;;7.90;99.90;;;;;;4972697;28;20470;-65
2024/03/31 05:57:48;;;;;;;36.35;17.67;;;8.00;99.90;;;;;;4972120;28;20118;-65
2024/03/31 06:00:15;;;;;;;31.23;17.35;;;7.90;99.90;;;;;;4972333;28;20490;-66
2024/03/31 06:02:40;;;;;;;29.85;14.70;;;8.00;99.90;;;;;;4973070;28;20027;-66
2024/03/31 06:05:09;;;;;;;32.47;13.35;;;8.00;99.90;;;;;;4976076;28;20042;-66
2024/03/31 06:07:36;;;;;;;22.88;11.77;;;8.10;99.90;;;;;;4984875;28;20030;-66
2024/03/31 06:10:02;;;;;;;23.27;10.48;;;8.20;99.90;;;;;;4976542;28;20473;-66
2024/03/31 06:12:28;;;;;;;20.48;10.05;;;8.30;99.90;;;;;;4977364;28;20027;-66
2024/03/31 06:14:53;;;;;;;24.70;9.68;;;8.40;99.90;;;;;;4978518;28;20104;-66
2024/03/31 06:17:20;;;;;;;21.15;9.02;;;8.50;99.90;;;;;;4977074;28;20051;-66
2024/03/31 06:19:46;;;;;;;22.80;9.98;;;8.50;99.90;;;;;;4970868;28;20019;-66
2024/03/31 06:22:12;;;;;;;25.08;9.50;;;8.60;99.90;;;;;;4978509;28;20034;-66
2024/03/31 06:24:37;;;;;;;23.88;9.18;;;8.60;99.90;;;;;;4978560;28;20034;-66
2024/03/31 06:27:03;;;;;;;20.73;9.32;;;8.70;99.90;;;;;;4975521;28;20026;-66
2024/03/31 06:29:29;;;;;;;23.85;8.70;;;8.80;99.90;;;;;;4975499;28;20081;-66
2024/03/31 06:31:54;;;;;;;23.52;10.25;;;8.90;99.90;;;;;;4969264;28;20101;-66
2024/03/31 06:34:20;;;;;;;21.70;9.90;;;9.00;99.90;;;;;;4971755;28;20035;-66
2024/03/31 06:36:45;;;;;;;25.10;9.30;;;9.00;99.90;;;;;;4984861;28;20026;-66
2024/03/31 06:39:12;;;;;;;24.35;10.60;;;9.10;99.90;;;;;;4978253;28;20112;-66
2024/03/31 06:41:38;;;;;;;18.65;7.63;;;9.20;99.90;;;;;;4978589;28;20109;-65
2024/03/31 06:44:04;;;;;;;20.35;7.07;;;9.20;99.90;;;;;;4974777;28;20081;-66
2024/03/31 06:46:29;;;;;;;18.38;6.82;;;9.30;99.90;;;;;;4977534;28;20031;-66
2024/03/31 06:48:55;;;;;;;15.75;6.20;;;9.40;99.90;;;;;;4976707;28;20035;-65
2024/03/31 06:51:26;;;;;;;17.65;6.30;;;9.50;99.90;;;;;;4969164;28;20026;-66
2024/03/31 06:53:51;;;;;;;18.67;5.28;;;9.60;99.90;;;;;;4983044;28;20041;-66
2024/03/31 06:56:20;;;;;;;12.60;4.60;;;9.70;99.90;;;;;;4978148;28;20385;-65
2024/03/31 06:58:46;;;;;;;13.25;4.65;;;9.70;99.90;;;;;;4986918;28;20050;-65
2024/03/31 07:01:11;;;;;;;11.30;4.43;;;9.80;99.90;;;;;;4980266;28;20065;-65
2024/03/31 07:03:37;;;;;;;13.30;4.72;;;9.80;99.90;;;;;;4982331;28;20060;-65
2024/03/31 07:06:04;;;;;;;17.63;4.93;;;9.90;99.90;;;;;;4981230;28;20430;-65
2024/03/31 07:08:29;;;;;;;11.68;3.30;;;10.00;99.90;;;;;;4976673;28;20027;-65
2024/03/31 07:10:55;;;;;;;9.63;3.78;;;10.00;99.90;;;;;;4975839;28;20025;-65
2024/03/31 07:13:23;;;;;;;8.43;3.08;;;10.10;99.90;;;;;;4975133;28;20027;-65
2024/03/31 07:15:49;;;;;;;12.05;3.95;;;10.20;99.90;;;;;;4973752;28;20027;-65
2024/03/31 07:18:15;;;;;;;10.15;3.33;;;;;;;;;;4977383;28;20066;-65
2024/03/31 07:20:40;;;;;;;10.43;3.22;;;10.20;99.90;;;;;;4973294;28;20461;-65
2024/03/31 07:23:06;;;;;;;10.38;3.38;;;10.30;99.90;;;;;;4977152;28;20023;-65
2024/03/31 07:25:36;;;;;;;14.95;3.28;;;10.40;99.90;;;;;;4977352;28;20031;-65
2024/03/31 07:28:02;;;;;;;9.70;3.10;;;10.50;99.90;;;;;;4975942;28;20027;-65
2024/03/31 07:30:27;;;;;;;14.18;3.50;;;10.70;99.90;;;;;;4979423;28;20091;-65
2024/03/31 07:32:53;;;;;;;10.07;3.30;;;10.80;99.90;;;;;;4972634;28;20028;-65
2024/03/31 07:35:19;;;;;;;12.52;3.53;;;11.00;99.90;;;;;;4966423;28;20085;-65
2024/03/31 07:37:45;;;;;;;12.00;3.28;;;11.10;99.90;;;;;;4972228;28;20367;-65
2024/03/31 07:40:12;;;;;;;11.20;2.90;;;11.30;99.90;;;;;;4964448;28;20080;-65
2024/03/31 07:42:37;;;;;;;13.50;3.05;;;11.50;99.90;;;;;;4976283;28;20076;-65
2024/03/31 07:45:04;;;;;;;10.13;2.53;;;11.70;99.90;;;;;;4977601;28;20035;-65
2024/03/31 07:47:29;;;;;;;17.25;2.97;;;11.80;99.90;;;;;;4977752;28;20038;-65
2024/03/31 07:49:55;;;;;;;9.07;2.83;;;12.00;99.90;;;;;;4971765;28;20023;-65
2024/03/31 07:52:21;;;;;;;9.20;2.63;;;12.10;99.90;;;;;;4975032;28;20046;-65
2024/03/31 07:54:46;;;;;;;10.20;2.92;;;12.20;99.90;;;;;;4974682;28;20117;-66
2024/03/31 07:57:12;;;;;;;11.93;2.70;;;12.30;99.90;;;;;;4980220;28;20034;-65
2024/03/31 07:59:37;;;;;;;10.80;2.40;;;12.30;99.90;;;;;;4980199;28;20142;-65
2024/03/31 08:02:03;;;;;;;8.98;2.50;;;12.50;99.90;;;;;;4973065;28;20476;-65
2024/03/31 08:04:29;;;;;;;10.18;2.33;;;12.70;99.90;;;;;;4979958;28;20079;-65
2024/03/31 08:06:55;;;;;;;6.45;2.00;;;12.90;99.90;;;;;;4976143;28;20027;-65
2024/03/31 08:09:20;;;;;;;7.80;2.40;;;13.10;99.90;;;;;;4975818;28;20034;-65
2024/03/31 08:11:46;;;;;;;8.07;2.55;;;13.30;99.90;;;;;;4979183;28;20034;-65
2024/03/31 08:14:12;;;;;;;11.25;4.15;;;13.40;99.90;;;;;;4979128;28;20413;-65
2024/03/31 08:16:38;;;;;;;7.82;2.00;;;13.30;99.90;;;;;;4980320;28;20041;-65
2024/03/31 08:19:03;;;;;;;9.85;2.28;;;13.30;99.90;;;;;;4976562;28;20089;-65
2024/03/31 08:21:29;;;;;;;9.23;2.22;;;13.30;99.90;;;;;;4979673;28;20030;-65
2024/03/31 08:23:55;;;;;;;8.95;1.90;;;13.40;99.90;;;;;;4976830;28;20045;-65
2024/03/31 08:26:20;;;;;;;11.45;2.58;;;13.60;99.90;;;;;;4975512;28;20023;-65
2024/03/31 08:28:48;;;;;;;10.77;2.60;;;13.80;99.90;;;;;;4976584;28;20027;-65
2024/03/31 08:31:13;;;;;;;6.65;1.92;;;14.00;99.90;;;;;;4973333;28;20030;-65
2024/03/31 08:33:39;;;;;;;8.10;2.50;;;14.30;99.90;;;;;;4974926;28;20042;-65
2024/03/31 08:36:07;;;;;;;12.50;1.85;;;14.60;99.90;;;;;;4983690;28;20026;-65
2024/03/31 08:38:32;;;;;;;10.30;2.13;;;15.00;99.90;;;;;;4978023;28;20030;-65
2024/03/31 08:41:16;;;;;;;7.28;1.60;;;15.30;99.90;;;;;;4974764;28;20546;-65
2024/03/31 08:43:45;;;;;;;9.50;2.00;;;15.80;99.90;;;;;;4978741;28;20034;-65
2024/03/31 08:46:11;;;;;;;10.20;2.03;;;16.50;99.90;;;;;;4972631;28;20032;-65
2024/03/31 08:48:38;;;;;;;6.30;1.75;;;17.10;99.90;;;;;;4969437;28;20031;-65
2024/03/31 08:51:06;;;;;;;10.95;2.13;;;17.50;99.90;;;;;;4975476;28;20434;-65
2024/03/31 08:53:33;;;;;;;6.72;1.50;;;17.50;99.90;;;;;;4973531;28;20382;-65
2024/03/31 08:55:59;;;;;;;9.10;1.92;;;17.60;99.90;;;;;;4972261;28;20024;-65
2024/03/31 08:58:25;;;;;;;8.40;2.28;;;17.90;99.90;;;;;;4979307;28;20113;-65
2024/03/31 09:00:51;;;;;;;9.38;1.58;;;18.10;99.90;;;;;;4978594;28;20584;-65
2024/03/31 09:03:17;;;;;;;8.80;1.60;;;18.20;99.90;;;;;;4979219;28;20022;-65
2024/03/31 09:05:43;;;;;;;8.93;1.65;;;18.50;99.90;;;;;;4979551;28;20030;-65
2024/03/31 09:08:09;;;;;;;8.48;1.50;;;18.80;99.90;;;;;;4976027;28;20037;-65
2024/03/31 09:10:37;;;;;;;11.13;1.58;;;18.90;99.90;;;;;;4974019;28;20058;-65
2024/03/31 09:13:09;;;;;;;9.48;1.65;;;19.00;99.90;;;;;;4981082;28;20038;-65
2024/03/31 09:15:40;;;;;;;10.82;1.63;;;19.20;99.90;;;;;;4979550;28;20034;-65
2024/03/31 09:18:06;;;;;;;7.75;1.40;;;19.30;99.90;;;;;;4975508;28;20057;-65
2024/03/31 09:20:31;;;;;;;6.55;1.48;;;19.30;99.90;;;;;;4975975;28;20385;-65
2024/03/31 09:22:58;;;;;;;4.88;1.30;;;19.40;99.90;;;;;;4975776;28;20470;-64
2024/03/31 09:25:25;;;;;;;9.45;1.58;;;19.50;99.90;;;;;;4976552;28;20083;-64
2024/03/31 09:27:53;;;;;;;9.30;1.50;;;19.70;99.90;;;;;;4979040;28;20058;-64
2024/03/31 09:30:18;;;;;;;8.43;1.60;;;20.00;99.90;;;;;;4974572;28;20018;-65
2024/03/31 09:32:47;;;;;;;9.07;1.45;;;20.20;99.90;;;;;;4975719;28;20088;-65
2024/03/31 09:35:15;;;;;;;7.07;1.27;;;20.40;98.40;;;;;;4972783;28;20035;-64
2024/03/31 09:37:41;;;;;;;9.55;1.60;;;20.40;97.80;;;;;;4977031;28;20462;-65
2024/03/31 09:40:07;;;;;;;11.10;1.60;;;20.20;99.40;;;;;;4977233;28;20018;-65
2024/03/31 09:42:33;;;;;;;9.40;2.03;;;20.20;97.90;;;;;;4973091;28;20211;-65
2024/03/31 09:45:03;;;;;;;11.93;1.70;;;20.20;99.30;;;;;;4974207;28;20022;-65
2024/03/31 09:47:36;;;;;;;6.00;1.42;;;20.40;99.90;;;;;;4973921;28;20023;-65
2024/03/31 09:50:31;;;;;;;7.07;1.52;;;20.70;99.20;;;;;;4965861;28;20092;-64
2024/03/31 09:53:04;;;;;;;10.70;1.88;;;21.10;97.80;;;;;;4965041;28;20049;-64
2024/03/31 09:55:37;;;;;;;8.05;1.75;;;21.20;94.60;;;;;;4971142;28;20512;-64
2024/03/31 09:58:13;;;;;;;10.45;1.55;;;20.90;96.80;;;;;;4988114;28;20025;-64
2024/03/31 10:00:49;;;;;;;8.48;1.38;;;21.20;93.30;;;;;;4971925;28;20031;-64
2024/03/31 10:03:23;;;;;;;8.45;1.67;;;21.30;90.60;;;;;;4974467;28;20105;-64
2024/03/31 10:05:50;;;;;;;8.32;1.60;;;21.50;92.30;;;;;;4977299;28;20059;-64
2024/03/31 10:08:19;;;;;;;8.05;1.45;;;21.80;90.40;;;;;;4974340;28;20033;-64
2024/03/31 10:10:45;;;;;;;7.50;1.33;;;22.10;81.00;;;;;;4967827;28;20031;-65
2024/03/31 10:13:13;;;;;;;5.75;1.13;;;22.30;84.40;;;;;;4973255;28;20459;-64
2024/03/31 10:15:39;;;;;;;8.05;1.10;;;22.40;80.80;;;;;;4972722;28;20026;-64
2024/03/31 10:18:07;;;;;;;8.48;1.40;;;23.00;81.20;;;;;;4972607;28;20054;-64
2024/03/31 10:20:33;;;;;;;9.85;1.40;;;23.20;70.80;;;;;;4966956;28;20023;-64
2024/03/31 10:22:59;;;;;;;6.43;1.20;;;23.10;67.80;;;;;;4973360;28;20110;-64
2024/03/31 10:25:27;;;;;;;7.53;1.35;;;22.80;69.70;;;;;;4968722;28;20046;-64
2024/03/31 10:27:55;;;;;;;12.98;2.08;;;23.00;75.70;;;;;;4970177;28;20035;-65
2024/03/31 10:30:27;;;;;;;9.02;1.70;;;23.70;67.20;;;;;;4977329;28;20470;-65
2024/03/31 10:32:56;;;;;;;9.57;1.40;;;24.00;65.70;;;;;;4977084;28;20046;-64
2024/03/31 10:35:29;;;;;;;6.65;1.05;;;24.20;64.00;;;;;;4979007;28;20035;-64
2024/03/31 10:37:56;;;;;;;9.77;1.20;;;24.20;63.60;;;;;;4971543;28;20107;-64
2024/03/31 10:40:26;;;;;;;7.32;1.27;;;24.20;67.20;;;;;;4980657;28;20041;-64
2024/03/31 10:42:55;;;;;;;4.85;1.05;;;24.70;63.50;;;;;;4980816;28;20049;-64
2024/03/31 10:45:24;;;;;;;7.78;1.10;;;25.10;65.40;;;;;;4975986;28;20035;-64
2024/03/31 10:47:50;;;;;;;9.02;1.40;;;25.20;62.80;;;;;;4967485;28;20050;-64
2024/03/31 10:50:15;;;;;;;9.93;1.42;;;25.50;59.60;;;;;;4977133;28;20026;-65
2024/03/31 10:52:42;;;;;;;6.90;1.30;;;25.60;58.70;;;;;;4981278;28;20029;-65
2024/03/31 10:55:09;;;;;;;7.13;1.30;;;25.30;58.50;;;;;;4977543;28;20038;-65
2024/03/31 10:57:39;;;;;;;8.55;1.40;;;25.10;60.50;;;;;;4983211;28;20038;-64
2024/03/31 11:00:06;;;;;;;18.33;1.73;;;25.10;62.80;;;;;;4984218;28;20233;-64
2024/03/31 11:02:33;;;;;;;10.55;1.65;;;24.60;60.70;;;;;;4977489;28;20034;-64
2024/03/31 11:05:06;;;;;;;8.05;1.35;;;23.90;66.20;;;;;;4981516;28;20500;-64
2024/03/31 11:07:35;;;;;;;7.53;1.42;;;23.50;66.90;;;;;;4986252;28;20037;-64
2024/03/31 11:10:11;;;;;;;9.02;1.25;;;23.10;68.20;;;;;;4970585;28;20026;-64
2024/03/31 11:12:44;;;;;;;7.47;1.38;;;22.60;73.90;;;;;;4972897;28;20030;-64
2024/03/31 11:15:14;;;;;;;12.32;1.75;;;22.10;75.20;;;;;;4981653;28;20029;-64
2024/03/31 11:17:43;;;;;;;10.05;1.60;;;21.90;79.40;;;;;;4980728;28;20045;-64
2024/03/31 11:20:12;;;;;;;11.98;1.67;;;22.40;76.20;;;;;;4980301;28;20035;-64
2024/03/31 11:22:37;;;;;;;5.72;1.20;;;23.00;72.50;;;;;;4979252;28;20058;-64
2024/03/31 11:25:07;;;;;;;7.78;1.50;;;23.80;66.30;;;;;;4983777;28;20031;-64
2024/03/31 11:27:33;;;;;;;11.25;1.50;;;24.20;64.60;;;;;;4977135;28;20478;-64
2024/03/31 11:30:04;;;;;;;7.65;1.23;;;24.40;66.80;;;;;;4973983;28;20192;-65
2024/03/31 11:32:31;;;;;;;11.75;1.73;;;24.90;60.70;;;;;;4975176;28;20130;-64
2024/03/31 11:34:57;;;;;;;14.80;2.22;;;25.00;59.90;;;;;;4971938;28;20027;-65
2024/03/31 11:37:23;;;;;;;11.95;1.70;;;24.70;62.80;;;;;;4981387;28;20039;-64
2024/03/31 11:39:49;;;;;;;9.75;1.48;;;25.00;63.60;;;;;;4978566;28;20038;-64
2024/03/31 11:42:15;;;;;;;10.93;1.70;;;25.50;62.00;;;;;;4976405;28;20059;-65
2024/03/31 11:44:41;;;;;;;7.38;1.35;;;26.20;59.40;;;;;;4974775;28;20048;-65
2024/03/31 11:47:09;;;;;;;8.18;1.50;;;27.00;60.30;;;;;;4976040;28;20038;-65
2024/03/31 11:49:35;;;;;;;11.48;1.70;;;27.50;58.40;;;;;;4975987;28;20064;-64
2024/03/31 11:52:01;;;;;;;9.27;1.30;;;27.80;55.00;;;;;;4982566;28;20066;-65
2024/03/31 11:54:28;;;;;;;8.02;1.42;;;27.50;56.90;;;;;;4974259;28;20059;-64
2024/03/31 11:56:54;;;;;;;8.68;1.50;;;27.30;57.30;;;;;;4975321;28;20061;-65
2024/03/31 11:59:23;;;;;;;8.63;1.30;;;27.50;55.70;;;;;;4977419;28;20046;-65
2024/03/31 12:01:57;;;;;;;9.20;1.42;;;27.70;55.30;;;;;;4971396;28;20505;-65
2024/03/31 12:04:22;;;;;;;8.75;1.20;;;27.50;55.10;;;;;;4971326;28;20034;-64
2024/03/31 12:06:49;;;;;;;8.75;1.70;;;26.30;58.10;;;;;;4977921;28;20038;-65
2024/03/31 12:09:15;;;;;;;9.07;1.65;;;25.70;56.60;;;;;;4973422;28;20058;-64
2024/03/31 12:11:44;;;;;;;12.98;1.70;;;24.40;57.70;;;;;;4984255;28;20057;-65
2024/03/31 12:14:10;;;;;;;10.00;1.48;;;22.90;60.90;;;;;;4975875;28;20055;-64
2024/03/31 12:16:37;;;;;;;9.35;1.58;;;22.40;66.10;;;;;;4979213;28;20065;-64
2024/03/31 12:19:06;;;;;;;12.43;1.60;;;22.50;68.40;;;;;;4965222;28;20377;-64
2024/03/31 12:21:35;;;;;;;9.25;1.50;;;22.40;70.90;;;;;;4977237;28;20537;-64
2024/03/31 12:24:02;;;;;;;12.73;1.60;;;22.10;69.60;;;;;;4972630;28;20030;-64
2024/03/31 12:26:29;;;;;;;6.78;1.33;;;22.50;68.10;;;;;;4973961;28;20026;-64
2024/03/31 12:28:54;;;;;;;7.60;1.45;;;22.80;67.50;;;;;;4975739;28;20092;-64
2024/03/31 12:31:23;;;;;;;9.38;1.40;;;23.10;65.10;;;;;;4979273;28;20615;-64
2024/03/31 12:33:49;;;;;;;7.78;1.20;;;23.40;64.30;;;;;;4978983;28;20114;-64
2024/03/31 12:36:15;;;;;;;7.65;1.60;;;24.10;62.00;;;;;;4977013;28;20109;-65
2024/03/31 12:38:44;;;;;;;6.63;1.48;;;24.70;60.90;;;;;;4972527;28;20039;-65